Nerlerit Inaat

KL  EN  DA
ASIAQ
Weather Now GREENLAND SURVEY
Updated [WGT/WGST] Temperature [°C] Wind [m/s] Air pressure [hPa] Relative humidity [%] Precipitation [mm]
Present Wind chill Speed Max
20.04 17:00-6,4-15,39,4 ⇓n/a100768n/a
20.04 16:00-5,9-14,910,2 ⇓n/a100668n/a
20.04 15:00-5,7-15,111,3 ⇓n/a100668n/a
20.04 14:00-5,4-15,212,9 ⇓n/a100669n/a
20.04 13:00-5,3-14,812,1 ⇓n/a100569n/a
20.04 12:00-5,2-14,812,7 ⇓n/a100570n/a
20.04 11:00-5,7-15,612,8 ⇓n/a100570n/a
20.04 10:00-6,0-16,213,7 ⇓n/a100573n/a
20.04 09:00-6,2-16,614,0 ⇓n/a100578n/a
20.04 08:00-6,1-16,514,1 ⇓n/a100478n/a
20.04 07:00-6,1-16,514,2 ⇓17,0100480n/a
20.04 06:00-5,4-15,714,8 ⇓17,2100376n/a
20.04 05:00-4,3-13,211,4 ⇓17,8100372n/a
20.04 04:00-4,3-13,813,4 ⇓14,6100284n/a
20.04 03:00-3,6-12,512,1 ⇓15,8100184n/a
20.04 02:00-3,5-12,512,5 ⇓14,8100187n/a
20.04 01:00-2,1-9,79,6 ⇓15,7100087n/a
20.04 00:00-2,9-11,812,9 ⇓11,8100090n/a
19.04 23:00-2,9-11,913,4 ⇓17,2100190n/a
19.04 22:00-2,9-11,913,4 ⇓17,8100192n/a
19.04 21:00-2,8-12,114,5 ⇓n/a100193n/a
19.04 20:00-1,6-9,711,8 ⇓n/a100286n/a
19.04 19:00-0,4-7,29,0 ⇓n/a100287n/a
19.04 18:00-0,1-6,47,9 ⇓n/a100389n/a
19.04 17:00-0,1-6,07,0 ⇓n/a100391n/a
Position: (70.75,-22.65)

[Back]